createdAt,value
2023-04-19T00:01:25.299Z,47.79
2023-04-19T00:03:52.152Z,47.59
2023-04-19T00:06:18.999Z,47.58
2023-04-19T00:08:45.587Z,47.84
2023-04-19T00:11:12.207Z,48.07
2023-04-19T00:13:38.732Z,47.51
2023-04-19T00:16:05.891Z,47.84
2023-04-19T00:18:32.415Z,48.58
2023-04-19T00:20:58.968Z,48.02
2023-04-19T00:23:25.927Z,48.20
2023-04-19T00:25:52.490Z,48.05
2023-04-19T00:28:19.008Z,47.93
2023-04-19T00:30:45.618Z,47.63
2023-04-19T00:33:15.100Z,48.16
2023-04-19T00:35:42.243Z,48.17
2023-04-19T00:38:08.875Z,48.29
2023-04-19T00:40:37.366Z,48.04
2023-04-19T00:43:04.773Z,48.09
2023-04-19T00:45:33.564Z,48.42
2023-04-19T00:48:01.415Z,48.11
2023-04-19T00:50:28.693Z,48.26
2023-04-19T00:52:57.512Z,47.99
2023-04-19T00:55:25.202Z,48.11
2023-04-19T00:57:52.105Z,48.19
2023-04-19T01:00:20.155Z,48.38
2023-04-19T01:02:48.004Z,47.95
2023-04-19T01:05:14.945Z,48.03
2023-04-19T01:07:43.159Z,48.33
2023-04-19T01:10:10.311Z,47.93
2023-04-19T01:12:36.974Z,47.99
2023-04-19T01:15:04.001Z,47.91
2023-04-19T01:17:33.033Z,48.12
2023-04-19T01:20:04.104Z,48.14
2023-04-19T01:22:31.888Z,48.03
2023-04-19T01:24:58.867Z,48.15
2023-04-19T01:27:25.597Z,47.49
2023-04-19T01:29:52.249Z,47.86
2023-04-19T01:32:18.970Z,47.66
2023-04-19T01:34:45.574Z,47.61
2023-04-19T01:37:12.148Z,47.98
2023-04-19T01:39:40.381Z,47.81
2023-04-19T01:42:07.237Z,47.97
2023-04-19T01:44:33.840Z,47.74
2023-04-19T01:47:00.569Z,47.62
2023-04-19T01:49:27.193Z,47.84
2023-04-19T01:51:53.831Z,47.74
2023-04-19T01:54:20.536Z,47.72
2023-04-19T01:56:49.560Z,47.89
2023-04-19T01:59:16.330Z,47.92
2023-04-19T02:01:42.933Z,48.35
2023-04-19T02:04:10.520Z,48.31
2023-04-19T02:06:37.155Z,47.69
2023-04-19T02:09:04.302Z,48.19
2023-04-19T02:11:30.951Z,48.29
2023-04-19T02:13:57.493Z,48.69
2023-04-19T02:16:24.143Z,48.94
2023-04-19T02:18:50.751Z,49.63
2023-04-19T02:21:18.177Z,49.78
2023-04-19T02:23:44.771Z,50.04
2023-04-19T02:26:11.524Z,50.40
2023-04-19T02:28:39.100Z,50.83
2023-04-19T02:31:06.410Z,50.97
2023-04-19T02:33:35.253Z,51.07
2023-04-19T02:36:01.890Z,51.13
2023-04-19T02:38:28.486Z,51.54
2023-04-19T02:40:55.050Z,51.77
2023-04-19T02:43:21.642Z,51.71
2023-04-19T02:45:48.311Z,52.19
2023-04-19T02:48:14.884Z,52.59
2023-04-19T02:50:41.394Z,51.97
2023-04-19T02:53:08.136Z,52.08
2023-04-19T02:55:34.729Z,52.61
2023-04-19T02:58:06.671Z,52.59
2023-04-19T03:00:38.110Z,52.53
2023-04-19T03:03:10.019Z,52.36
2023-04-19T03:05:36.860Z,52.52
2023-04-19T03:08:03.543Z,52.41
2023-04-19T03:10:30.353Z,52.48
2023-04-19T03:12:56.905Z,52.29
2023-04-19T03:15:23.646Z,53.03
2023-04-19T03:17:50.391Z,53.26
2023-04-19T03:20:20.744Z,52.95
2023-04-19T03:22:47.529Z,52.34
2023-04-19T03:25:14.393Z,53.01
2023-04-19T03:27:45.584Z,52.80
2023-04-19T03:30:14.302Z,53.24
2023-04-19T03:32:42.950Z,53.23
2023-04-19T03:35:11.518Z,53.60
2023-04-19T03:37:38.516Z,54.25
2023-04-19T03:40:05.962Z,53.77
2023-04-19T03:42:34.129Z,53.75
2023-04-19T03:45:12.006Z,54.31
2023-04-19T03:47:43.797Z,54.08
2023-04-19T03:50:10.685Z,53.98
2023-04-19T03:52:38.727Z,54.19
2023-04-19T03:55:06.054Z,53.64
2023-04-19T03:57:39.489Z,53.60
2023-04-19T04:00:16.858Z,53.77
2023-04-19T04:02:47.551Z,53.99
2023-04-19T04:05:15.040Z,54.09
2023-04-19T04:07:42.026Z,54.14
2023-04-19T04:10:09.051Z,53.98
2023-04-19T04:12:41.050Z,53.55
2023-04-19T04:15:10.024Z,54.04
2023-04-19T04:17:41.270Z,54.12
2023-04-19T04:20:08.916Z,53.96
2023-04-19T04:22:39.786Z,53.67
2023-04-19T04:25:06.971Z,53.87
2023-04-19T04:27:37.484Z,53.62
2023-04-19T04:30:06.290Z,53.77
2023-04-19T04:32:35.810Z,53.56
2023-04-19T04:35:04.024Z,53.81
2023-04-19T04:37:40.205Z,54.03
2023-04-19T04:40:08.931Z,53.97
2023-04-19T04:42:35.648Z,53.77
2023-04-19T04:45:02.327Z,54.42
2023-04-19T04:47:34.728Z,54.02
2023-04-19T04:50:05.948Z,54.18
2023-04-19T04:52:32.562Z,54.23
2023-04-19T04:55:11.012Z,54.62
2023-04-19T04:57:42.217Z,54.49
2023-04-19T05:00:14.076Z,54.93
2023-04-19T05:02:50.578Z,55.00
2023-04-19T05:05:17.302Z,54.22
2023-04-19T05:07:43.984Z,54.23
2023-04-19T05:10:11.073Z,54.46
2023-04-19T05:12:44.055Z,54.26
2023-04-19T05:15:12.004Z,55.08
2023-04-19T05:17:43.074Z,54.44
2023-04-19T05:20:10.109Z,54.22
2023-04-19T05:22:37.442Z,54.16
2023-04-19T05:25:06.324Z,54.17
2023-04-19T05:27:33.017Z,53.83
2023-04-19T05:29:59.883Z,54.22
2023-04-19T05:32:27.481Z,54.17
2023-04-19T05:34:57.476Z,54.48
2023-04-19T05:37:27.052Z,54.27
2023-04-19T05:39:53.614Z,54.59
2023-04-19T05:42:20.574Z,54.38
2023-04-19T05:44:47.099Z,54.55
2023-04-19T05:47:13.918Z,54.76
2023-04-19T05:49:55.064Z,54.91
2023-04-19T05:52:41.888Z,54.66
2023-04-19T05:55:08.538Z,54.58
2023-04-19T05:57:40.298Z,54.10
2023-04-19T06:00:09.512Z,53.99
2023-04-19T06:02:57.935Z,53.88
2023-04-19T06:05:24.777Z,54.01
2023-04-19T06:07:55.547Z,53.95
2023-04-19T06:10:36.771Z,53.85
2023-04-19T06:13:16.164Z,53.87
2023-04-19T06:15:43.228Z,53.93
2023-04-19T06:18:10.294Z,53.86
2023-04-19T06:20:46.688Z,54.07
2023-04-19T06:23:14.685Z,54.73
2023-04-19T06:25:41.309Z,54.01
2023-04-19T06:28:07.920Z,54.11
2023-04-19T06:30:34.436Z,53.89
2023-04-19T06:33:01.153Z,54.27
2023-04-19T06:35:27.805Z,54.33
2023-04-19T06:37:54.363Z,54.32
2023-04-19T06:40:21.033Z,54.16
2023-04-19T06:42:47.570Z,54.49
2023-04-19T06:45:15.983Z,54.19
2023-04-19T06:47:42.576Z,54.02
2023-04-19T06:50:10.671Z,53.76
2023-04-19T06:52:38.485Z,53.62
2023-04-19T06:55:07.025Z,53.44
2023-04-19T06:57:33.562Z,53.17
2023-04-19T07:00:00.197Z,53.88
2023-04-19T07:02:26.941Z,53.58
2023-04-19T07:04:53.637Z,53.36
2023-04-19T07:07:20.173Z,53.93
2023-04-19T07:09:46.756Z,53.51
2023-04-19T07:12:13.271Z,53.26
2023-04-19T07:14:39.789Z,53.10
2023-04-19T07:17:06.310Z,53.07
2023-04-19T07:19:33.057Z,53.21
2023-04-19T07:21:59.835Z,53.22
2023-04-19T07:24:27.887Z,53.23
2023-04-19T07:26:54.505Z,52.69
2023-04-19T07:29:21.137Z,52.32
2023-04-19T07:31:47.865Z,52.50
2023-04-19T07:34:14.867Z,52.21
2023-04-19T07:36:41.517Z,52.54
2023-04-19T07:39:08.342Z,52.56
2023-04-19T07:41:36.112Z,52.67
2023-04-19T07:44:03.126Z,52.70
2023-04-19T07:46:30.104Z,52.19
2023-04-19T07:48:56.707Z,52.23
2023-04-19T07:51:24.536Z,52.43
2023-04-19T07:53:51.173Z,51.91
2023-04-19T07:56:19.611Z,51.79
2023-04-19T07:58:50.910Z,50.78
2023-04-19T08:01:23.579Z,51.22
2023-04-19T08:03:50.325Z,50.98
2023-04-19T08:06:17.970Z,50.39
2023-04-19T08:08:44.533Z,50.39
2023-04-19T08:11:11.090Z,49.93
2023-04-19T08:13:37.903Z,50.23
2023-04-19T08:18:35.920Z,50.02
2023-04-19T08:21:02.552Z,49.68
2023-04-19T08:23:34.937Z,49.75
2023-04-19T08:26:08.100Z,48.64
2023-04-19T08:28:34.646Z,48.54
2023-04-19T08:31:01.198Z,48.35
2023-04-19T08:33:28.900Z,49.11
2023-04-19T08:35:55.446Z,48.98
2023-04-19T08:38:22.047Z,48.69
2023-04-19T08:40:52.700Z,48.38
2023-04-19T08:43:19.905Z,48.59
2023-04-19T08:45:50.491Z,48.34
2023-04-19T08:48:18.920Z,48.51
2023-04-19T08:51:03.536Z,48.55
2023-04-19T08:53:34.276Z,47.71
2023-04-19T09:01:04.955Z,46.18
2023-04-19T09:03:38.552Z,47.05
2023-04-19T09:06:12.050Z,46.83
2023-04-19T09:08:39.844Z,47.14
2023-04-19T09:11:06.691Z,47.78
2023-04-19T09:13:34.091Z,47.38
2023-04-19T09:16:00.976Z,46.70
2023-04-19T09:18:30.401Z,47.19
2023-04-19T09:20:58.149Z,47.02
2023-04-19T09:23:27.318Z,46.88
2023-04-19T09:26:19.468Z,45.66
2023-04-19T09:28:56.279Z,45.63
2023-04-19T09:31:39.047Z,44.00
2023-04-19T09:34:17.846Z,43.96
2023-04-19T09:36:44.815Z,43.75
2023-04-19T09:39:12.103Z,43.75
2023-04-19T09:41:52.957Z,43.87
2023-04-19T09:45:01.801Z,44.51
2023-04-19T09:47:24.571Z,43.63
2023-04-19T09:50:22.860Z,42.90
2023-04-19T09:52:52.630Z,42.72
2023-04-19T09:57:49.184Z,42.86
2023-04-19T10:00:16.069Z,43.13
2023-04-19T10:02:44.958Z,42.75
2023-04-19T10:05:20.681Z,42.47
2023-04-19T10:07:49.704Z,41.75
2023-04-19T10:10:22.567Z,42.68
2023-04-19T10:15:25.115Z,42.17
2023-04-19T10:17:52.782Z,41.94
2023-04-19T10:20:25.234Z,41.21
2023-04-19T10:22:51.912Z,40.79
2023-04-19T10:25:18.671Z,40.62
2023-04-19T10:27:51.274Z,40.16
2023-04-19T10:30:26.983Z,40.25
2023-04-19T10:32:56.548Z,39.19
2023-04-19T10:35:25.853Z,39.22
2023-04-19T10:38:13.275Z,38.31
2023-04-19T10:40:52.399Z,37.42
2023-04-19T10:43:19.892Z,37.31
2023-04-19T10:45:47.592Z,38.62
2023-04-19T10:48:26.401Z,39.05
2023-04-19T10:51:11.421Z,40.03
2023-04-19T10:53:51.811Z,40.88
2023-04-19T10:56:35.536Z,40.78
2023-04-19T10:59:10.195Z,39.60
2023-04-19T11:01:47.316Z,38.82
2023-04-19T11:04:43.859Z,39.07
2023-04-19T11:07:13.313Z,41.50
2023-04-19T11:09:45.198Z,42.15
2023-04-19T11:12:13.976Z,43.18
2023-04-19T11:14:42.866Z,43.65
2023-04-19T11:17:19.380Z,44.05
2023-04-19T11:19:56.829Z,43.81
2023-04-19T11:22:37.552Z,43.80
2023-04-19T11:25:08.744Z,43.78
2023-04-19T11:27:36.096Z,43.82
2023-04-19T11:30:08.180Z,43.76
2023-04-19T11:32:35.490Z,43.75
2023-04-19T11:35:08.136Z,43.60
2023-04-19T11:37:36.565Z,44.17
2023-04-19T11:40:07.675Z,43.91
2023-04-19T11:42:34.707Z,44.80
2023-04-19T11:45:01.978Z,44.99
2023-04-19T11:47:28.923Z,45.39
2023-04-19T11:49:58.706Z,46.21
2023-04-19T11:52:26.358Z,45.65
2023-04-19T11:54:53.597Z,46.01
2023-04-19T11:57:30.634Z,46.25
2023-04-19T12:00:11.009Z,46.01
2023-04-19T12:02:46.442Z,46.05
2023-04-19T12:05:15.489Z,48.55
2023-04-19T12:08:17.655Z,46.79
2023-04-19T12:10:57.509Z,47.65
2023-04-19T12:13:25.633Z,48.75
2023-04-19T12:15:52.745Z,50.22
2023-04-19T12:18:19.355Z,50.61
2023-04-19T12:20:48.292Z,50.92
2023-04-19T12:23:16.239Z,50.75
2023-04-19T12:25:46.064Z,51.33
2023-04-19T12:28:13.673Z,51.63
2023-04-19T12:30:40.712Z,51.85
2023-04-19T12:33:08.211Z,53.75
2023-04-19T12:35:35.982Z,50.97
2023-04-19T12:38:03.309Z,51.29
2023-04-19T12:40:30.672Z,52.88
2023-04-19T12:42:57.336Z,51.47
2023-04-19T12:45:24.018Z,51.69
2023-04-19T12:47:50.840Z,51.81
2023-04-19T12:50:17.436Z,51.58
2023-04-19T12:52:44.704Z,52.35
2023-04-19T12:55:11.401Z,52.57
2023-04-19T12:57:37.920Z,52.86
2023-04-19T13:00:06.077Z,54.11
2023-04-19T13:02:34.898Z,53.86
2023-04-19T13:05:05.001Z,53.08
2023-04-19T13:07:31.699Z,52.75
2023-04-19T13:09:58.248Z,53.59
2023-04-19T13:12:24.840Z,54.07
2023-04-19T13:14:52.570Z,52.93
2023-04-19T13:17:20.233Z,52.81
2023-04-19T13:19:47.470Z,52.50
2023-04-19T13:22:14.325Z,53.14
2023-04-19T13:24:40.892Z,52.71
2023-04-19T13:27:08.893Z,53.10
2023-04-19T13:29:36.307Z,53.21
2023-04-19T13:32:03.206Z,52.94
2023-04-19T13:34:29.765Z,53.21
2023-04-19T13:36:57.598Z,53.45
2023-04-19T13:39:24.314Z,52.66
2023-04-19T13:41:51.240Z,52.86
2023-04-19T13:44:18.189Z,53.04
2023-04-19T13:46:45.143Z,53.04
2023-04-19T13:49:11.802Z,53.77
2023-04-19T13:51:49.614Z,52.99
2023-04-19T13:54:18.151Z,53.13
2023-04-19T13:56:50.533Z,53.52
2023-04-19T13:59:18.139Z,53.66
2023-04-19T14:01:44.884Z,53.48
2023-04-19T14:04:11.555Z,53.89
2023-04-19T14:06:38.306Z,54.37
2023-04-19T14:09:04.842Z,54.83
2023-04-19T14:11:33.005Z,54.13
2023-04-19T14:13:59.601Z,54.12
2023-04-19T14:16:26.204Z,54.54
2023-04-19T14:18:52.923Z,54.44
2023-04-19T14:21:19.760Z,53.70
2023-04-19T14:23:46.585Z,54.08
2023-04-19T14:26:13.217Z,55.35
2023-04-19T14:28:39.747Z,56.02
2023-04-19T14:31:06.320Z,55.24
2023-04-19T14:33:33.304Z,55.28
2023-04-19T14:36:00.000Z,55.15
2023-04-19T14:38:26.533Z,54.25
2023-04-19T14:40:53.464Z,54.21
2023-04-19T14:43:20.050Z,54.67
2023-04-19T14:45:49.675Z,54.05
2023-04-19T14:48:16.389Z,53.96
2023-04-19T14:50:42.996Z,54.79
2023-04-19T14:53:09.757Z,54.64
2023-04-19T14:55:39.296Z,54.44
2023-04-19T14:58:05.922Z,55.67
2023-04-19T15:00:33.617Z,54.85
2023-04-19T15:03:01.426Z,54.58
2023-04-19T15:05:28.395Z,53.85
2023-04-19T15:07:55.346Z,53.69
2023-04-19T15:10:21.886Z,53.27
2023-04-19T15:12:48.482Z,52.39
2023-04-19T15:15:15.004Z,52.67
2023-04-19T15:17:42.815Z,53.90
2023-04-19T15:20:09.582Z,53.44
2023-04-19T15:22:36.295Z,53.96
2023-04-19T15:25:03.561Z,56.27
2023-04-19T15:27:30.309Z,54.64
2023-04-19T15:29:56.827Z,54.07
2023-04-19T15:32:23.439Z,55.39
2023-04-19T15:34:50.049Z,53.34
2023-04-19T15:37:16.618Z,53.75
2023-04-19T15:39:43.947Z,53.45
2023-04-19T15:42:10.584Z,53.47
2023-04-19T15:44:37.342Z,54.02
2023-04-19T15:47:04.025Z,53.69
2023-04-19T15:49:30.917Z,52.85
2023-04-19T15:52:03.463Z,52.99
2023-04-19T15:54:30.939Z,52.48
2023-04-19T15:56:57.646Z,52.93
2023-04-19T15:59:24.221Z,52.99
2023-04-19T16:01:50.867Z,52.53
2023-04-19T16:04:17.770Z,52.54
2023-04-19T16:06:44.709Z,52.74
2023-04-19T16:09:11.397Z,52.60
2023-04-19T16:11:39.073Z,52.96
2023-04-19T16:14:07.826Z,52.11
2023-04-19T16:16:34.911Z,52.48
2023-04-19T16:19:02.184Z,52.29
2023-04-19T16:21:30.399Z,52.97
2023-04-19T16:23:58.092Z,52.56
2023-04-19T16:26:26.050Z,53.98
2023-04-19T16:28:52.987Z,53.84
2023-04-19T16:31:19.535Z,53.53
2023-04-19T16:33:46.204Z,52.51
2023-04-19T16:36:12.820Z,52.78
2023-04-19T16:38:39.342Z,53.61
2023-04-19T16:41:05.972Z,53.19
2023-04-19T16:43:32.722Z,54.04
2023-04-19T16:45:59.368Z,53.83
2023-04-19T16:48:26.928Z,54.88
2023-04-19T16:50:53.614Z,53.24
2023-04-19T16:53:20.324Z,52.45
2023-04-19T16:55:46.851Z,51.98
2023-04-19T16:58:14.308Z,52.05
2023-04-19T17:00:41.071Z,52.73
2023-04-19T17:03:09.960Z,53.48
2023-04-19T17:05:36.782Z,53.55
2023-04-19T17:08:03.389Z,52.90
2023-04-19T17:10:30.128Z,52.73
2023-04-19T17:12:57.048Z,51.84
2023-04-19T17:15:23.782Z,52.39
2023-04-19T17:17:50.434Z,51.76
2023-04-19T17:20:17.048Z,52.11
2023-04-19T17:22:43.667Z,52.27
2023-04-19T17:25:10.339Z,52.42
2023-04-19T17:27:36.918Z,51.71
2023-04-19T17:30:04.204Z,51.82
2023-04-19T17:32:31.207Z,51.78
2023-04-19T17:34:57.728Z,51.77
2023-04-19T17:37:24.308Z,51.74
2023-04-19T17:39:50.964Z,51.50
2023-04-19T17:42:17.550Z,51.68
2023-04-19T17:44:44.145Z,51.35
2023-04-19T17:47:10.748Z,51.33
2023-04-19T17:49:37.315Z,51.21
2023-04-19T17:52:04.022Z,50.94
2023-04-19T17:54:30.574Z,51.79
2023-04-19T17:56:59.232Z,51.57
2023-04-19T17:59:25.755Z,51.49
2023-04-19T18:01:52.348Z,51.10
2023-04-19T18:04:20.094Z,51.48
2023-04-19T18:06:46.918Z,51.25
2023-04-19T18:09:14.016Z,51.04
2023-04-19T18:11:40.804Z,50.79
2023-04-19T18:14:07.336Z,51.34
2023-04-19T18:16:34.036Z,51.47
2023-04-19T18:19:00.650Z,51.87
2023-04-19T18:21:27.452Z,51.54
2023-04-19T18:23:54.696Z,51.67
2023-04-19T18:26:24.113Z,51.06
2023-04-19T18:28:50.727Z,51.34
2023-04-19T18:31:17.240Z,50.88
2023-04-19T18:33:43.767Z,50.82
2023-04-19T18:36:10.989Z,51.34
2023-04-19T18:38:37.696Z,51.15
2023-04-19T18:41:04.465Z,50.94
2023-04-19T18:43:31.553Z,51.73
2023-04-19T18:45:59.070Z,51.21
2023-04-19T18:48:28.120Z,51.33
2023-04-19T18:50:55.173Z,50.94
2023-04-19T18:53:21.719Z,50.65
2023-04-19T18:55:48.544Z,51.14
2023-04-19T18:58:15.389Z,50.98
2023-04-19T19:00:41.927Z,51.29
2023-04-19T19:03:15.878Z,51.08
2023-04-19T19:05:55.548Z,51.26
2023-04-19T19:08:22.368Z,51.16
2023-04-19T19:11:14.312Z,51.25
2023-04-19T19:13:35.914Z,51.25
2023-04-19T19:16:02.662Z,51.14
2023-04-19T19:18:29.559Z,51.19
2023-04-19T19:21:03.116Z,51.25
2023-04-19T19:23:35.730Z,50.78
2023-04-19T19:26:03.696Z,50.91
2023-04-19T19:28:30.299Z,50.79
2023-04-19T19:30:56.867Z,50.73
2023-04-19T19:33:24.046Z,50.79
2023-04-19T19:35:50.697Z,50.29
2023-04-19T19:38:17.247Z,50.15
2023-04-19T19:41:20.726Z,50.55
2023-04-19T19:43:30.259Z,50.41
2023-04-19T19:45:56.850Z,50.62
2023-04-19T19:48:23.577Z,50.75
2023-04-19T19:51:17.348Z,50.58
2023-04-19T19:53:36.721Z,50.03
2023-04-19T19:56:13.044Z,50.04
2023-04-19T19:58:49.705Z,50.62
2023-04-19T20:01:18.229Z,50.50
2023-04-19T20:03:45.156Z,50.48
2023-04-19T20:06:57.207Z,50.71
2023-04-19T20:08:59.725Z,50.91
2023-04-19T20:11:26.391Z,50.67
2023-04-19T20:13:52.965Z,50.96
2023-04-19T20:16:19.641Z,51.31
2023-04-19T20:18:48.964Z,51.51
2023-04-19T20:21:16.944Z,51.08
2023-04-19T20:23:43.485Z,51.53
2023-04-19T20:26:09.995Z,51.76
2023-04-19T20:28:36.569Z,52.14
2023-04-19T20:31:03.174Z,51.97
2023-04-19T20:33:29.736Z,52.15
2023-04-19T20:35:59.630Z,51.73
2023-04-19T20:38:29.085Z,51.83
2023-04-19T20:40:56.379Z,51.75
2023-04-19T20:43:22.983Z,51.41
2023-04-19T20:45:49.672Z,51.46
2023-04-19T20:48:17.621Z,51.25
2023-04-19T20:50:44.251Z,51.32
2023-04-19T20:53:10.833Z,51.92
2023-04-19T20:55:38.194Z,51.57
2023-04-19T20:58:04.926Z,51.96
2023-04-19T21:00:31.506Z,51.93
2023-04-19T21:02:58.177Z,52.00
2023-04-19T21:05:24.803Z,51.38
2023-04-19T21:07:51.662Z,51.72
2023-04-19T21:10:18.571Z,52.01
2023-04-19T21:12:45.162Z,51.61
2023-04-19T21:15:12.162Z,51.55
2023-04-19T21:17:39.238Z,51.92
2023-04-19T21:20:11.988Z,51.74
2023-04-19T21:22:43.173Z,51.54
2023-04-19T21:25:10.803Z,51.35
2023-04-19T21:27:37.712Z,51.40
2023-04-19T21:30:08.334Z,51.61
2023-04-19T21:32:34.914Z,51.44
2023-04-19T21:35:01.863Z,51.48
2023-04-19T21:37:28.566Z,52.03
2023-04-19T21:39:55.280Z,52.21
2023-04-19T21:42:21.817Z,51.78
2023-04-19T21:44:48.445Z,52.11
2023-04-19T21:47:14.976Z,51.87
2023-04-19T21:49:41.596Z,51.43
2023-04-19T21:52:08.185Z,51.38
2023-04-19T21:54:34.921Z,51.32
2023-04-19T21:57:02.068Z,51.28
2023-04-19T21:59:30.714Z,51.33
2023-04-19T22:01:58.501Z,51.39
2023-04-19T22:04:25.210Z,50.91
2023-04-19T22:06:51.807Z,51.55
2023-04-19T22:09:18.512Z,51.93
2023-04-19T22:11:45.757Z,51.62
2023-04-19T22:14:12.743Z,51.94
2023-04-19T22:16:39.395Z,51.45
2023-04-19T22:19:05.950Z,51.29
2023-04-19T22:21:32.711Z,51.56
2023-04-19T22:23:59.291Z,51.77
2023-04-19T22:26:26.670Z,52.02
2023-04-19T22:28:54.276Z,51.55
2023-04-19T22:31:20.799Z,51.58
2023-04-19T22:33:47.386Z,51.62
2023-04-19T22:36:13.891Z,51.89
2023-04-19T22:38:40.487Z,51.59
2023-04-19T22:41:07.054Z,51.16
2023-04-19T22:43:33.600Z,51.00
2023-04-19T22:46:01.021Z,51.29
2023-04-19T22:48:29.951Z,51.45
2023-04-19T22:50:56.718Z,52.18
2023-04-19T22:53:23.794Z,51.68
2023-04-19T22:55:51.296Z,51.15
2023-04-19T22:58:19.083Z,51.11
2023-04-19T23:00:45.980Z,51.55
2023-04-19T23:03:12.564Z,51.47
2023-04-19T23:05:40.107Z,51.28
2023-04-19T23:08:07.151Z,51.46
2023-04-19T23:10:37.796Z,51.65
2023-04-19T23:13:05.841Z,51.59
2023-04-19T23:15:33.013Z,51.29
2023-04-19T23:18:02.138Z,50.93
2023-04-19T23:20:29.220Z,51.62
2023-04-19T23:22:55.759Z,51.44
2023-04-19T23:25:22.578Z,51.46
2023-04-19T23:27:50.267Z,51.17
2023-04-19T23:30:18.000Z,51.00
2023-04-19T23:32:44.539Z,51.39
2023-04-19T23:35:11.311Z,51.60
2023-04-19T23:37:37.966Z,51.76
2023-04-19T23:40:06.271Z,51.90
2023-04-19T23:42:32.841Z,51.74
2023-04-19T23:44:59.363Z,51.33
2023-04-19T23:47:26.083Z,51.35
2023-04-19T23:49:52.636Z,51.33
2023-04-19T23:52:22.496Z,51.28
2023-04-19T23:54:49.517Z,51.20
2023-04-19T23:57:16.052Z,50.87
2023-04-19T23:59:42.834Z,50.98
